sensor_id;sensor_type;location;lat;lon;timestamp;P1;durP1;ratioP1;P2;durP2;ratioP2
25319;SDS011;13256;49.012;8.610;2022-12-10T00:01:49;28.95;;;13.45;;
25319;SDS011;13256;49.012;8.610;2022-12-10T00:04:18;29.88;;;13.77;;
25319;SDS011;13256;49.012;8.610;2022-12-10T00:06:45;24.98;;;13.00;;
25319;SDS011;13256;49.012;8.610;2022-12-10T00:09:14;26.50;;;12.32;;
25319;SDS011;13256;49.012;8.610;2022-12-10T00:14:38;25.52;;;11.60;;
25319;SDS011;13256;49.012;8.610;2022-12-10T00:17:08;28.33;;;13.80;;
25319;SDS011;13256;49.012;8.610;2022-12-10T00:19:39;24.23;;;11.95;;
25319;SDS011;13256;49.012;8.610;2022-12-10T00:22:08;29.13;;;13.13;;
25319;SDS011;13256;49.012;8.610;2022-12-10T00:24:38;22.08;;;11.55;;
25319;SDS011;13256;49.012;8.610;2022-12-10T00:27:07;25.38;;;12.15;;
25319;SDS011;13256;49.012;8.610;2022-12-10T00:29:35;27.02;;;13.52;;
25319;SDS011;13256;49.012;8.610;2022-12-10T00:32:11;25.80;;;11.20;;
25319;SDS011;13256;49.012;8.610;2022-12-10T00:34:39;24.60;;;11.35;;
25319;SDS011;13256;49.012;8.610;2022-12-10T00:42:53;26.13;;;14.50;;
25319;SDS011;13256;49.012;8.610;2022-12-10T00:45:22;34.08;;;15.02;;
25319;SDS011;13256;49.012;8.610;2022-12-10T00:47:49;25.30;;;12.00;;
25319;SDS011;13256;49.012;8.610;2022-12-10T00:50:16;34.85;;;14.35;;
25319;SDS011;13256;49.012;8.610;2022-12-10T00:52:45;24.73;;;12.38;;
25319;SDS011;13256;49.012;8.610;2022-12-10T00:55:11;25.13;;;11.95;;
25319;SDS011;13256;49.012;8.610;2022-12-10T00:57:40;25.77;;;12.38;;
25319;SDS011;13256;49.012;8.610;2022-12-10T01:00:09;23.00;;;12.85;;
25319;SDS011;13256;49.012;8.610;2022-12-10T01:02:37;21.95;;;11.38;;
25319;SDS011;13256;49.012;8.610;2022-12-10T01:05:03;24.85;;;12.30;;
25319;SDS011;13256;49.012;8.610;2022-12-10T01:07:32;23.38;;;11.70;;
25319;SDS011;13256;49.012;8.610;2022-12-10T01:10:08;33.83;;;15.48;;
25319;SDS011;13256;49.012;8.610;2022-12-10T01:12:35;29.27;;;14.20;;
25319;SDS011;13256;49.012;8.610;2022-12-10T01:15:06;28.55;;;14.57;;
25319;SDS011;13256;49.012;8.610;2022-12-10T01:17:33;26.85;;;12.73;;
25319;SDS011;13256;49.012;8.610;2022-12-10T01:20:03;38.83;;;17.23;;
25319;SDS011;13256;49.012;8.610;2022-12-10T01:22:30;42.85;;;20.08;;
25319;SDS011;13256;49.012;8.610;2022-12-10T01:24:56;34.42;;;15.98;;
25319;SDS011;13256;49.012;8.610;2022-12-10T01:27:26;24.90;;;12.00;;
25319;SDS011;13256;49.012;8.610;2022-12-10T01:29:55;29.08;;;13.27;;
25319;SDS011;13256;49.012;8.610;2022-12-10T01:32:24;44.67;;;19.48;;
25319;SDS011;13256;49.012;8.610;2022-12-10T01:34:50;33.45;;;15.60;;
25319;SDS011;13256;49.012;8.610;2022-12-10T01:37:17;25.75;;;12.98;;
25319;SDS011;13256;49.012;8.610;2022-12-10T01:39:45;32.28;;;14.88;;
25319;SDS011;13256;49.012;8.610;2022-12-10T01:42:13;29.65;;;13.55;;
25319;SDS011;13256;49.012;8.610;2022-12-10T01:47:14;21.38;;;11.38;;
25319;SDS011;13256;49.012;8.610;2022-12-10T01:49:41;25.35;;;11.90;;
25319;SDS011;13256;49.012;8.610;2022-12-10T01:52:11;22.92;;;11.35;;
25319;SDS011;13256;49.012;8.610;2022-12-10T01:54:43;22.40;;;11.10;;
25319;SDS011;13256;49.012;8.610;2022-12-10T01:57:12;19.38;;;10.70;;
25319;SDS011;13256;49.012;8.610;2022-12-10T01:59:42;23.27;;;10.23;;
25319;SDS011;13256;49.012;8.610;2022-12-10T02:02:19;27.35;;;11.32;;
25319;SDS011;13256;49.012;8.610;2022-12-10T02:05:25;21.08;;;10.63;;
25319;SDS011;13256;49.012;8.610;2022-12-10T02:08:06;25.83;;;11.68;;
25319;SDS011;13256;49.012;8.610;2022-12-10T02:10:43;19.83;;;10.25;;
25319;SDS011;13256;49.012;8.610;2022-12-10T02:13:26;24.90;;;11.38;;
25319;SDS011;13256;49.012;8.610;2022-12-10T02:16:12;20.75;;;11.15;;
25319;SDS011;13256;49.012;8.610;2022-12-10T02:21:39;21.23;;;10.25;;
25319;SDS011;13256;49.012;8.610;2022-12-10T02:24:14;24.00;;;11.50;;
25319;SDS011;13256;49.012;8.610;2022-12-10T02:29:52;20.17;;;10.40;;
25319;SDS011;13256;49.012;8.610;2022-12-10T02:32:22;18.30;;;9.27;;
25319;SDS011;13256;49.012;8.610;2022-12-10T02:35:03;23.33;;;10.40;;
25319;SDS011;13256;49.012;8.610;2022-12-10T02:37:37;21.17;;;10.40;;
25319;SDS011;13256;49.012;8.610;2022-12-10T02:40:11;22.77;;;10.95;;
25319;SDS011;13256;49.012;8.610;2022-12-10T02:42:50;23.90;;;11.13;;
25319;SDS011;13256;49.012;8.610;2022-12-10T02:47:49;21.92;;;10.88;;
25319;SDS011;13256;49.012;8.610;2022-12-10T02:50:18;21.83;;;10.45;;
25319;SDS011;13256;49.012;8.610;2022-12-10T02:52:52;22.83;;;10.80;;
25319;SDS011;13256;49.012;8.610;2022-12-10T02:55:18;25.00;;;10.88;;
25319;SDS011;13256;49.012;8.610;2022-12-10T03:00:49;24.27;;;10.48;;
25319;SDS011;13256;49.012;8.610;2022-12-10T03:06:18;25.20;;;12.15;;
25319;SDS011;13256;49.012;8.610;2022-12-10T03:08:51;21.20;;;10.68;;
25319;SDS011;13256;49.012;8.610;2022-12-10T03:11:25;20.52;;;10.70;;
25319;SDS011;13256;49.012;8.610;2022-12-10T03:17:11;22.38;;;10.85;;
25319;SDS011;13256;49.012;8.610;2022-12-10T03:19:41;29.02;;;10.63;;
25319;SDS011;13256;49.012;8.610;2022-12-10T03:22:22;26.98;;;11.45;;
25319;SDS011;13256;49.012;8.610;2022-12-10T03:24:48;20.50;;;10.15;;
25319;SDS011;13256;49.012;8.610;2022-12-10T03:27:16;26.48;;;11.25;;
25319;SDS011;13256;49.012;8.610;2022-12-10T03:29:50;24.20;;;11.55;;
25319;SDS011;13256;49.012;8.610;2022-12-10T03:32:20;26.60;;;11.80;;
25319;SDS011;13256;49.012;8.610;2022-12-10T03:34:49;22.73;;;11.15;;
25319;SDS011;13256;49.012;8.610;2022-12-10T03:37:21;28.53;;;13.13;;
25319;SDS011;13256;49.012;8.610;2022-12-10T03:39:49;23.58;;;12.23;;
25319;SDS011;13256;49.012;8.610;2022-12-10T03:42:16;24.90;;;11.23;;
25319;SDS011;13256;49.012;8.610;2022-12-10T03:44:43;20.02;;;11.40;;
25319;SDS011;13256;49.012;8.610;2022-12-10T03:47:13;22.20;;;11.23;;
25319;SDS011;13256;49.012;8.610;2022-12-10T03:49:48;21.88;;;10.57;;
25319;SDS011;13256;49.012;8.610;2022-12-10T03:52:15;23.95;;;10.57;;
25319;SDS011;13256;49.012;8.610;2022-12-10T03:54:44;24.65;;;11.50;;
25319;SDS011;13256;49.012;8.610;2022-12-10T03:57:10;27.98;;;10.85;;
25319;SDS011;13256;49.012;8.610;2022-12-10T03:59:37;25.08;;;10.88;;
25319;SDS011;13256;49.012;8.610;2022-12-10T04:02:08;24.33;;;11.75;;
25319;SDS011;13256;49.012;8.610;2022-12-10T04:04:34;24.85;;;11.85;;
25319;SDS011;13256;49.012;8.610;2022-12-10T04:07:01;24.70;;;10.77;;
25319;SDS011;13256;49.012;8.610;2022-12-10T04:09:28;23.83;;;11.18;;
25319;SDS011;13256;49.012;8.610;2022-12-10T04:11:57;24.17;;;10.57;;
25319;SDS011;13256;49.012;8.610;2022-12-10T04:14:35;25.65;;;11.27;;
25319;SDS011;13256;49.012;8.610;2022-12-10T04:17:20;22.45;;;11.20;;
25319;SDS011;13256;49.012;8.610;2022-12-10T04:19:51;20.67;;;10.77;;
25319;SDS011;13256;49.012;8.610;2022-12-10T04:22:19;27.45;;;11.55;;
25319;SDS011;13256;49.012;8.610;2022-12-10T04:25:04;21.88;;;10.32;;
25319;SDS011;13256;49.012;8.610;2022-12-10T04:27:53;20.50;;;10.35;;
25319;SDS011;13256;49.012;8.610;2022-12-10T04:30:24;24.35;;;11.77;;
25319;SDS011;13256;49.012;8.610;2022-12-10T04:32:54;27.52;;;13.88;;
25319;SDS011;13256;49.012;8.610;2022-12-10T04:35:21;30.00;;;13.02;;
25319;SDS011;13256;49.012;8.610;2022-12-10T04:37:48;28.75;;;13.10;;
25319;SDS011;13256;49.012;8.610;2022-12-10T04:40:17;26.88;;;12.35;;
25319;SDS011;13256;49.012;8.610;2022-12-10T04:42:46;25.13;;;12.82;;
25319;SDS011;13256;49.012;8.610;2022-12-10T04:45:15;29.73;;;12.32;;
25319;SDS011;13256;49.012;8.610;2022-12-10T04:47:42;23.67;;;11.73;;
25319;SDS011;13256;49.012;8.610;2022-12-10T04:50:11;24.63;;;10.60;;
25319;SDS011;13256;49.012;8.610;2022-12-10T04:52:37;20.75;;;10.50;;
25319;SDS011;13256;49.012;8.610;2022-12-10T04:55:08;25.95;;;11.63;;
25319;SDS011;13256;49.012;8.610;2022-12-10T04:57:34;23.00;;;11.00;;
25319;SDS011;13256;49.012;8.610;2022-12-10T05:00:04;23.02;;;11.07;;
25319;SDS011;13256;49.012;8.610;2022-12-10T05:02:47;22.02;;;10.63;;
25319;SDS011;13256;49.012;8.610;2022-12-10T05:07:41;21.95;;;10.75;;
25319;SDS011;13256;49.012;8.610;2022-12-10T05:10:10;21.27;;;10.40;;
25319;SDS011;13256;49.012;8.610;2022-12-10T05:12:37;23.30;;;11.40;;
25319;SDS011;13256;49.012;8.610;2022-12-10T05:15:04;21.33;;;10.05;;
25319;SDS011;13256;49.012;8.610;2022-12-10T05:17:35;24.48;;;11.07;;
25319;SDS011;13256;49.012;8.610;2022-12-10T05:20:03;24.17;;;10.68;;
25319;SDS011;13256;49.012;8.610;2022-12-10T05:22:31;22.63;;;10.90;;
25319;SDS011;13256;49.012;8.610;2022-12-10T05:25:18;25.55;;;10.13;;
25319;SDS011;13256;49.012;8.610;2022-12-10T05:27:47;22.50;;;11.77;;
25319;SDS011;13256;49.012;8.610;2022-12-10T05:30:19;23.45;;;11.18;;
25319;SDS011;13256;49.012;8.610;2022-12-10T05:32:46;22.17;;;10.52;;
25319;SDS011;13256;49.012;8.610;2022-12-10T05:35:13;20.25;;;10.20;;
25319;SDS011;13256;49.012;8.610;2022-12-10T05:37:40;20.25;;;10.27;;
25319;SDS011;13256;49.012;8.610;2022-12-10T05:40:06;18.92;;;10.55;;
25319;SDS011;13256;49.012;8.610;2022-12-10T05:42:36;21.20;;;10.43;;
25319;SDS011;13256;49.012;8.610;2022-12-10T05:45:05;18.63;;;9.95;;
25319;SDS011;13256;49.012;8.610;2022-12-10T05:47:35;19.20;;;10.45;;
25319;SDS011;13256;49.012;8.610;2022-12-10T05:50:02;23.80;;;10.13;;
25319;SDS011;13256;49.012;8.610;2022-12-10T05:52:32;26.35;;;11.50;;
25319;SDS011;13256;49.012;8.610;2022-12-10T05:54:59;23.50;;;12.98;;
25319;SDS011;13256;49.012;8.610;2022-12-10T05:57:28;31.50;;;12.50;;
25319;SDS011;13256;49.012;8.610;2022-12-10T05:59:54;26.83;;;13.52;;
25319;SDS011;13256;49.012;8.610;2022-12-10T06:02:24;22.45;;;11.35;;
25319;SDS011;13256;49.012;8.610;2022-12-10T06:04:55;23.50;;;10.63;;
25319;SDS011;13256;49.012;8.610;2022-12-10T06:07:24;26.08;;;12.05;;
25319;SDS011;13256;49.012;8.610;2022-12-10T06:09:51;20.98;;;10.90;;
25319;SDS011;13256;49.012;8.610;2022-12-10T06:12:22;25.35;;;11.98;;
25319;SDS011;13256;49.012;8.610;2022-12-10T06:14:59;25.08;;;12.30;;
25319;SDS011;13256;49.012;8.610;2022-12-10T06:17:29;24.95;;;12.68;;
25319;SDS011;13256;49.012;8.610;2022-12-10T06:19:59;23.95;;;11.40;;
25319;SDS011;13256;49.012;8.610;2022-12-10T06:22:25;29.67;;;14.75;;
25319;SDS011;13256;49.012;8.610;2022-12-10T06:24:54;27.77;;;11.90;;
25319;SDS011;13256;49.012;8.610;2022-12-10T06:27:21;25.38;;;11.48;;
25319;SDS011;13256;49.012;8.610;2022-12-10T06:29:50;29.92;;;12.00;;
25319;SDS011;13256;49.012;8.610;2022-12-10T06:32:17;22.40;;;11.25;;
25319;SDS011;13256;49.012;8.610;2022-12-10T06:34:44;28.90;;;13.25;;
25319;SDS011;13256;49.012;8.610;2022-12-10T06:37:10;22.15;;;10.88;;
25319;SDS011;13256;49.012;8.610;2022-12-10T06:39:39;23.27;;;12.63;;
25319;SDS011;13256;49.012;8.610;2022-12-10T06:42:07;25.63;;;11.98;;
25319;SDS011;13256;49.012;8.610;2022-12-10T06:44:37;23.90;;;11.70;;
25319;SDS011;13256;49.012;8.610;2022-12-10T06:47:09;25.83;;;12.48;;
25319;SDS011;13256;49.012;8.610;2022-12-10T06:49:38;26.48;;;12.50;;
25319;SDS011;13256;49.012;8.610;2022-12-10T06:52:08;24.60;;;11.95;;
25319;SDS011;13256;49.012;8.610;2022-12-10T06:54:38;27.45;;;13.82;;
25319;SDS011;13256;49.012;8.610;2022-12-10T06:57:09;25.77;;;13.38;;
25319;SDS011;13256;49.012;8.610;2022-12-10T06:59:41;27.75;;;13.65;;
25319;SDS011;13256;49.012;8.610;2022-12-10T07:02:13;25.95;;;11.52;;
25319;SDS011;13256;49.012;8.610;2022-12-10T07:04:43;27.48;;;13.32;;
25319;SDS011;13256;49.012;8.610;2022-12-10T07:07:36;28.85;;;13.52;;
25319;SDS011;13256;49.012;8.610;2022-12-10T07:10:04;28.23;;;14.00;;
25319;SDS011;13256;49.012;8.610;2022-12-10T07:12:33;31.83;;;13.77;;
25319;SDS011;13256;49.012;8.610;2022-12-10T07:15:02;30.85;;;13.77;;
25319;SDS011;13256;49.012;8.610;2022-12-10T07:17:54;30.42;;;13.27;;
25319;SDS011;13256;49.012;8.610;2022-12-10T07:20:23;31.92;;;14.18;;
25319;SDS011;13256;49.012;8.610;2022-12-10T07:22:50;34.25;;;15.68;;
25319;SDS011;13256;49.012;8.610;2022-12-10T07:25:20;34.35;;;13.90;;
25319;SDS011;13256;49.012;8.610;2022-12-10T07:27:56;24.58;;;12.23;;
25319;SDS011;13256;49.012;8.610;2022-12-10T07:30:24;37.47;;;15.02;;
25319;SDS011;13256;49.012;8.610;2022-12-10T07:32:53;29.23;;;14.25;;
25319;SDS011;13256;49.012;8.610;2022-12-10T07:35:19;35.92;;;14.85;;
25319;SDS011;13256;49.012;8.610;2022-12-10T07:37:46;28.45;;;12.95;;
25319;SDS011;13256;49.012;8.610;2022-12-10T07:40:13;30.58;;;13.70;;
25319;SDS011;13256;49.012;8.610;2022-12-10T07:42:40;37.38;;;15.55;;
25319;SDS011;13256;49.012;8.610;2022-12-10T07:45:07;30.80;;;13.95;;
25319;SDS011;13256;49.012;8.610;2022-12-10T07:47:35;27.08;;;13.25;;
25319;SDS011;13256;49.012;8.610;2022-12-10T07:50:03;29.17;;;13.50;;
25319;SDS011;13256;49.012;8.610;2022-12-10T07:52:34;30.17;;;14.05;;
25319;SDS011;13256;49.012;8.610;2022-12-10T07:55:01;31.17;;;13.95;;
25319;SDS011;13256;49.012;8.610;2022-12-10T07:57:28;31.45;;;13.25;;
25319;SDS011;13256;49.012;8.610;2022-12-10T07:59:56;30.45;;;13.05;;
25319;SDS011;13256;49.012;8.610;2022-12-10T08:02:24;33.08;;;14.25;;
25319;SDS011;13256;49.012;8.610;2022-12-10T08:04:51;32.67;;;14.00;;
25319;SDS011;13256;49.012;8.610;2022-12-10T08:07:17;40.50;;;14.95;;
25319;SDS011;13256;49.012;8.610;2022-12-10T08:09:50;38.47;;;17.10;;
25319;SDS011;13256;49.012;8.610;2022-12-10T08:12:19;37.20;;;16.38;;
25319;SDS011;13256;49.012;8.610;2022-12-10T08:14:45;30.25;;;13.00;;
25319;SDS011;13256;49.012;8.610;2022-12-10T08:17:12;35.80;;;14.75;;
25319;SDS011;13256;49.012;8.610;2022-12-10T08:19:39;33.58;;;14.85;;
25319;SDS011;13256;49.012;8.610;2022-12-10T08:22:06;37.40;;;15.63;;
25319;SDS011;13256;49.012;8.610;2022-12-10T08:24:33;37.00;;;15.75;;
25319;SDS011;13256;49.012;8.610;2022-12-10T08:27:00;36.15;;;14.85;;
25319;SDS011;13256;49.012;8.610;2022-12-10T08:29:27;29.58;;;12.80;;
25319;SDS011;13256;49.012;8.610;2022-12-10T08:31:54;33.85;;;14.40;;
25319;SDS011;13256;49.012;8.610;2022-12-10T08:34:21;33.00;;;14.13;;
25319;SDS011;13256;49.012;8.610;2022-12-10T08:36:51;33.15;;;14.15;;
25319;SDS011;13256;49.012;8.610;2022-12-10T08:39:17;34.30;;;15.27;;
25319;SDS011;13256;49.012;8.610;2022-12-10T08:41:44;31.75;;;14.55;;
25319;SDS011;13256;49.012;8.610;2022-12-10T08:44:12;41.35;;;15.32;;
25319;SDS011;13256;49.012;8.610;2022-12-10T08:46:42;32.55;;;14.70;;
25319;SDS011;13256;49.012;8.610;2022-12-10T08:49:10;32.45;;;14.32;;
25319;SDS011;13256;49.012;8.610;2022-12-10T08:51:37;36.30;;;15.65;;
25319;SDS011;13256;49.012;8.610;2022-12-10T08:54:09;37.05;;;15.20;;
25319;SDS011;13256;49.012;8.610;2022-12-10T08:56:38;29.90;;;14.50;;
25319;SDS011;13256;49.012;8.610;2022-12-10T08:59:05;30.23;;;13.07;;
25319;SDS011;13256;49.012;8.610;2022-12-10T09:01:38;34.75;;;16.65;;
25319;SDS011;13256;49.012;8.610;2022-12-10T09:04:04;36.10;;;15.00;;
25319;SDS011;13256;49.012;8.610;2022-12-10T09:06:35;34.50;;;15.80;;
25319;SDS011;13256;49.012;8.610;2022-12-10T09:09:04;33.88;;;15.75;;
25319;SDS011;13256;49.012;8.610;2022-12-10T09:11:34;38.93;;;16.93;;
25319;SDS011;13256;49.012;8.610;2022-12-10T09:14:02;32.95;;;15.25;;
25319;SDS011;13256;49.012;8.610;2022-12-10T09:16:30;33.45;;;14.20;;
25319;SDS011;13256;49.012;8.610;2022-12-10T09:18:59;31.00;;;13.93;;
25319;SDS011;13256;49.012;8.610;2022-12-10T09:21:26;33.38;;;14.80;;
25319;SDS011;13256;49.012;8.610;2022-12-10T09:23:56;33.30;;;15.50;;
25319;SDS011;13256;49.012;8.610;2022-12-10T09:26:24;33.30;;;14.88;;
25319;SDS011;13256;49.012;8.610;2022-12-10T09:28:53;35.55;;;15.25;;
25319;SDS011;13256;49.012;8.610;2022-12-10T09:31:23;35.17;;;15.75;;
25319;SDS011;13256;49.012;8.610;2022-12-10T09:33:51;32.85;;;15.05;;
25319;SDS011;13256;49.012;8.610;2022-12-10T09:36:21;32.83;;;13.55;;
25319;SDS011;13256;49.012;8.610;2022-12-10T09:38:50;31.05;;;14.40;;
25319;SDS011;13256;49.012;8.610;2022-12-10T09:51:43;29.45;;;13.27;;
25319;SDS011;13256;49.012;8.610;2022-12-10T09:59:47;25.58;;;12.25;;
25319;SDS011;13256;49.012;8.610;2022-12-10T10:02:24;29.90;;;13.80;;
25319;SDS011;13256;49.012;8.610;2022-12-10T10:05:06;31.88;;;13.98;;
25319;SDS011;13256;49.012;8.610;2022-12-10T10:07:46;35.35;;;15.18;;
25319;SDS011;13256;49.012;8.610;2022-12-10T10:10:29;32.20;;;15.60;;
25319;SDS011;13256;49.012;8.610;2022-12-10T10:18:43;35.63;;;14.43;;
25319;SDS011;13256;49.012;8.610;2022-12-10T10:23:56;29.73;;;13.68;;
25319;SDS011;13256;49.012;8.610;2022-12-10T10:26:24;39.78;;;16.35;;
25319;SDS011;13256;49.012;8.610;2022-12-10T10:28:54;31.85;;;15.23;;
25319;SDS011;13256;49.012;8.610;2022-12-10T10:31:30;28.77;;;14.00;;
25319;SDS011;13256;49.012;8.610;2022-12-10T10:33:59;32.03;;;14.05;;
25319;SDS011;13256;49.012;8.610;2022-12-10T10:36:35;32.88;;;13.43;;
25319;SDS011;13256;49.012;8.610;2022-12-10T10:39:17;31.48;;;13.45;;
25319;SDS011;13256;49.012;8.610;2022-12-10T10:41:57;36.22;;;13.52;;
25319;SDS011;13256;49.012;8.610;2022-12-10T10:44:26;40.63;;;17.90;;
25319;SDS011;13256;49.012;8.610;2022-12-10T10:47:03;27.80;;;12.32;;
25319;SDS011;13256;49.012;8.610;2022-12-10T10:50:14;36.30;;;16.08;;
25319;SDS011;13256;49.012;8.610;2022-12-10T10:52:51;33.42;;;15.60;;
25319;SDS011;13256;49.012;8.610;2022-12-10T10:55:36;25.48;;;12.38;;
25319;SDS011;13256;49.012;8.610;2022-12-10T10:58:14;33.72;;;14.95;;
25319;SDS011;13256;49.012;8.610;2022-12-10T11:00:52;35.08;;;15.77;;
25319;SDS011;13256;49.012;8.610;2022-12-10T11:03:21;30.48;;;13.80;;
25319;SDS011;13256;49.012;8.610;2022-12-10T11:05:48;25.38;;;12.88;;
25319;SDS011;13256;49.012;8.610;2022-12-10T11:08:18;34.05;;;13.65;;
25319;SDS011;13256;49.012;8.610;2022-12-10T11:10:49;36.03;;;14.88;;
25319;SDS011;13256;49.012;8.610;2022-12-10T11:13:24;30.10;;;13.35;;
25319;SDS011;13256;49.012;8.610;2022-12-10T11:18:51;27.67;;;11.82;;
25319;SDS011;13256;49.012;8.610;2022-12-10T11:21:31;24.38;;;11.45;;
25319;SDS011;13256;49.012;8.610;2022-12-10T11:24:09;29.02;;;13.52;;
25319;SDS011;13256;49.012;8.610;2022-12-10T11:32:14;23.80;;;10.98;;
25319;SDS011;13256;49.012;8.610;2022-12-10T11:34:58;26.42;;;11.85;;
25319;SDS011;13256;49.012;8.610;2022-12-10T11:46:13;27.08;;;12.13;;
25319;SDS011;13256;49.012;8.610;2022-12-10T11:49:01;24.73;;;11.70;;
25319;SDS011;13256;49.012;8.610;2022-12-10T11:54:41;24.58;;;11.32;;
25319;SDS011;13256;49.012;8.610;2022-12-10T11:57:43;28.15;;;11.10;;
25319;SDS011;13256;49.012;8.610;2022-12-10T12:00:58;26.88;;;11.95;;
25319;SDS011;13256;49.012;8.610;2022-12-10T12:14:36;21.98;;;10.60;;
25319;SDS011;13256;49.012;8.610;2022-12-10T12:19:59;24.38;;;11.77;;
25319;SDS011;13256;49.012;8.610;2022-12-10T12:25:40;22.92;;;10.70;;
25319;SDS011;13256;49.012;8.610;2022-12-10T12:31:41;26.45;;;12.52;;
25319;SDS011;13256;49.012;8.610;2022-12-10T12:34:31;25.40;;;11.88;;
25319;SDS011;13256;49.012;8.610;2022-12-10T12:40:29;31.10;;;13.93;;
25319;SDS011;13256;49.012;8.610;2022-12-10T12:43:04;27.65;;;12.15;;
25319;SDS011;13256;49.012;8.610;2022-12-10T12:45:44;22.27;;;11.55;;
25319;SDS011;13256;49.012;8.610;2022-12-10T12:51:15;20.88;;;10.63;;
25319;SDS011;13256;49.012;8.610;2022-12-10T12:54:02;24.38;;;11.13;;
25319;SDS011;13256;49.012;8.610;2022-12-10T12:56:52;22.35;;;10.13;;
25319;SDS011;13256;49.012;8.610;2022-12-10T12:59:53;23.35;;;11.13;;
25319;SDS011;13256;49.012;8.610;2022-12-10T13:13:38;24.83;;;10.77;;
25319;SDS011;13256;49.012;8.610;2022-12-10T13:22:00;24.00;;;11.13;;
25319;SDS011;13256;49.012;8.610;2022-12-10T13:29:45;21.73;;;10.68;;
25319;SDS011;13256;49.012;8.610;2022-12-10T13:32:17;19.63;;;9.93;;
25319;SDS011;13256;49.012;8.610;2022-12-10T13:49:30;22.92;;;9.77;;
25319;SDS011;13256;49.012;8.610;2022-12-10T13:52:10;22.83;;;11.18;;
25319;SDS011;13256;49.012;8.610;2022-12-10T14:06:18;18.77;;;9.60;;
25319;SDS011;13256;49.012;8.610;2022-12-10T14:11:48;18.80;;;9.13;;
25319;SDS011;13256;49.012;8.610;2022-12-10T14:14:26;21.77;;;10.25;;
25319;SDS011;13256;49.012;8.610;2022-12-10T14:17:02;23.80;;;10.90;;
25319;SDS011;13256;49.012;8.610;2022-12-10T14:19:50;19.90;;;10.47;;
25319;SDS011;13256;49.012;8.610;2022-12-10T14:22:28;18.60;;;9.70;;
25319;SDS011;13256;49.012;8.610;2022-12-10T14:24:58;21.67;;;10.70;;
25319;SDS011;13256;49.012;8.610;2022-12-10T14:27:27;26.83;;;11.35;;
25319;SDS011;13256;49.012;8.610;2022-12-10T14:32:33;22.50;;;11.02;;
25319;SDS011;13256;49.012;8.610;2022-12-10T14:35:11;23.70;;;12.30;;
25319;SDS011;13256;49.012;8.610;2022-12-10T14:37:52;29.00;;;13.43;;
25319;SDS011;13256;49.012;8.610;2022-12-10T14:40:24;21.90;;;12.05;;
25319;SDS011;13256;49.012;8.610;2022-12-10T14:43:04;26.88;;;12.82;;
25319;SDS011;13256;49.012;8.610;2022-12-10T14:45:53;22.58;;;11.00;;
25319;SDS011;13256;49.012;8.610;2022-12-10T14:48:24;22.02;;;10.43;;
25319;SDS011;13256;49.012;8.610;2022-12-10T14:50:51;25.23;;;12.85;;
25319;SDS011;13256;49.012;8.610;2022-12-10T14:53:48;19.17;;;10.13;;
25319;SDS011;13256;49.012;8.610;2022-12-10T14:56:20;21.65;;;10.02;;
25319;SDS011;13256;49.012;8.610;2022-12-10T14:59:12;19.98;;;9.13;;
25319;SDS011;13256;49.012;8.610;2022-12-10T15:01:45;20.13;;;9.73;;
25319;SDS011;13256;49.012;8.610;2022-12-10T15:04:47;17.17;;;8.48;;
25319;SDS011;13256;49.012;8.610;2022-12-10T15:07:20;24.08;;;10.80;;
25319;SDS011;13256;49.012;8.610;2022-12-10T15:10:04;18.00;;;9.40;;
25319;SDS011;13256;49.012;8.610;2022-12-10T15:12:45;16.45;;;8.40;;
25319;SDS011;13256;49.012;8.610;2022-12-10T15:17:59;16.45;;;8.05;;
25319;SDS011;13256;49.012;8.610;2022-12-10T15:23:18;20.35;;;9.98;;
25319;SDS011;13256;49.012;8.610;2022-12-10T15:31:57;40.55;;;15.13;;
25319;SDS011;13256;49.012;8.610;2022-12-10T15:34:26;18.63;;;10.38;;
25319;SDS011;13256;49.012;8.610;2022-12-10T15:36:56;19.23;;;9.73;;
25319;SDS011;13256;49.012;8.610;2022-12-10T15:39:29;20.55;;;9.75;;
25319;SDS011;13256;49.012;8.610;2022-12-10T15:47:56;18.63;;;8.98;;
25319;SDS011;13256;49.012;8.610;2022-12-10T15:50:28;17.52;;;8.23;;
25319;SDS011;13256;49.012;8.610;2022-12-10T15:52:55;20.30;;;9.15;;
25319;SDS011;13256;49.012;8.610;2022-12-10T15:55:22;22.42;;;9.23;;
25319;SDS011;13256;49.012;8.610;2022-12-10T15:57:49;19.25;;;10.48;;
25319;SDS011;13256;49.012;8.610;2022-12-10T16:00:25;21.35;;;9.18;;
25319;SDS011;13256;49.012;8.610;2022-12-10T16:05:23;19.60;;;8.93;;
25319;SDS011;13256;49.012;8.610;2022-12-10T16:07:53;18.00;;;9.48;;
25319;SDS011;13256;49.012;8.610;2022-12-10T16:10:23;17.17;;;8.70;;
25319;SDS011;13256;49.012;8.610;2022-12-10T16:13:00;19.33;;;9.45;;
25319;SDS011;13256;49.012;8.610;2022-12-10T16:15:42;20.75;;;9.00;;
25319;SDS011;13256;49.012;8.610;2022-12-10T16:18:16;14.60;;;9.23;;
25319;SDS011;13256;49.012;8.610;2022-12-10T16:23:24;18.23;;;8.93;;
25319;SDS011;13256;49.012;8.610;2022-12-10T16:25:50;19.83;;;9.52;;
25319;SDS011;13256;49.012;8.610;2022-12-10T16:28:20;20.73;;;10.23;;
25319;SDS011;13256;49.012;8.610;2022-12-10T16:30:52;19.83;;;10.18;;
25319;SDS011;13256;49.012;8.610;2022-12-10T16:33:21;21.25;;;10.48;;
25319;SDS011;13256;49.012;8.610;2022-12-10T16:35:50;21.50;;;10.13;;
25319;SDS011;13256;49.012;8.610;2022-12-10T16:38:21;15.85;;;9.00;;
25319;SDS011;13256;49.012;8.610;2022-12-10T16:40:51;19.00;;;10.48;;
25319;SDS011;13256;49.012;8.610;2022-12-10T16:43:22;22.15;;;10.23;;
25319;SDS011;13256;49.012;8.610;2022-12-10T16:45:54;22.00;;;10.40;;
25319;SDS011;13256;49.012;8.610;2022-12-10T16:48:21;20.42;;;10.55;;
25319;SDS011;13256;49.012;8.610;2022-12-10T16:50:49;20.42;;;10.38;;
25319;SDS011;13256;49.012;8.610;2022-12-10T16:53:24;29.73;;;12.73;;
25319;SDS011;13256;49.012;8.610;2022-12-10T16:55:53;26.55;;;11.30;;
25319;SDS011;13256;49.012;8.610;2022-12-10T16:58:24;30.70;;;12.82;;
25319;SDS011;13256;49.012;8.610;2022-12-10T17:00:55;25.70;;;11.73;;
25319;SDS011;13256;49.012;8.610;2022-12-10T17:03:24;28.83;;;12.52;;
25319;SDS011;13256;49.012;8.610;2022-12-10T17:05:55;28.17;;;12.43;;
25319;SDS011;13256;49.012;8.610;2022-12-10T17:08:30;25.75;;;12.20;;
25319;SDS011;13256;49.012;8.610;2022-12-10T17:11:01;26.77;;;12.27;;
25319;SDS011;13256;49.012;8.610;2022-12-10T17:13:53;25.38;;;11.73;;
25319;SDS011;13256;49.012;8.610;2022-12-10T17:16:20;22.55;;;11.48;;
25319;SDS011;13256;49.012;8.610;2022-12-10T17:18:48;26.88;;;11.60;;
25319;SDS011;13256;49.012;8.610;2022-12-10T17:21:18;26.77;;;12.50;;
25319;SDS011;13256;49.012;8.610;2022-12-10T17:23:48;29.58;;;13.07;;
25319;SDS011;13256;49.012;8.610;2022-12-10T17:26:26;22.48;;;10.25;;
25319;SDS011;13256;49.012;8.610;2022-12-10T17:29:03;20.98;;;10.93;;
25319;SDS011;13256;49.012;8.610;2022-12-10T17:31:36;21.45;;;9.93;;
25319;SDS011;13256;49.012;8.610;2022-12-10T17:37:12;27.98;;;11.15;;
25319;SDS011;13256;49.012;8.610;2022-12-10T17:39:45;31.70;;;12.90;;
25319;SDS011;13256;49.012;8.610;2022-12-10T17:42:14;27.00;;;11.90;;
25319;SDS011;13256;49.012;8.610;2022-12-10T17:44:42;30.92;;;11.75;;
25319;SDS011;13256;49.012;8.610;2022-12-10T17:47:23;30.33;;;13.02;;
25319;SDS011;13256;49.012;8.610;2022-12-10T17:52:53;22.02;;;11.32;;
25319;SDS011;13256;49.012;8.610;2022-12-10T17:55:23;27.17;;;11.52;;
25319;SDS011;13256;49.012;8.610;2022-12-10T17:57:51;23.17;;;10.55;;